Time;durP1;ratioP1;P1;durP2;ratioP2;P2;SDS_P1;SDS_P2;PMS_P1;PMS_P2;Temp;Humidity;BMP_temperature;BMP_pressure;BME280_temperature;BME280_humidity;BME280_pressure;Samples;Min_cycle;Max_cycle;Signal;HPM_P1;HPM_P2
2022/04/08 00:00:59;;;;;;;2.20;0.10;;;;;;;7.90;66.78;99470.84;10579439;28;20067;-84
2022/04/08 00:06:02;;;;;;;0.20;0.08;;;;;;;8.07;66.64;99483.94;10562506;28;20096;-84
2022/04/08 00:11:03;;;;;;;0.00;0.00;;;;;;;8.15;66.42;99492.59;10561576;28;20040;-85
2022/04/08 00:16:07;;;;;;;1.45;0.30;;;;;;;7.97;66.48;99497.47;10544332;28;20052;-84
2022/04/08 00:21:09;;;;;;;1.20;0.50;;;;;;;7.96;66.80;99486.34;10543771;28;20054;-85
2022/04/08 00:26:11;;;;;;;0.30;0.30;;;;;;;8.20;66.38;99511.47;10560436;28;20443;-84
2022/04/08 00:31:12;;;;;;;0.00;0.00;;;;;;;8.14;66.78;99529.34;10561068;28;20475;-82
2022/04/08 00:36:14;;;;;;;0.00;0.00;;;;;;;8.15;67.34;99543.03;10560930;28;20047;-81
2022/04/08 00:41:16;;;;;;;0.00;0.00;;;;;;;8.07;67.80;99556.59;10560376;28;20051;-82
2022/04/08 00:46:18;;;;;;;0.00;0.00;;;;;;;8.04;68.51;99561.69;10561450;28;20039;-81
2022/04/08 00:51:19;;;;;;;0.00;0.00;;;;;;;7.89;68.54;99577.72;10543634;28;20047;-83
2022/04/08 00:56:22;;;;;;;0.00;0.00;;;;;;;8.00;68.63;99594.97;10560352;28;20071;-81
2022/04/08 01:01:26;;;;;;;1.17;0.30;;;;;;;7.67;66.97;99591.03;10545571;28;20051;-82
2022/04/08 01:06:34;;;;;;;0.10;0.10;;;;;;;7.65;66.51;99608.97;10580302;28;20070;-82
2022/04/08 01:11:56;;;;;;;1.33;1.23;;;;;;;7.82;66.02;99616.91;10559351;28;20040;-81
2022/04/08 01:17:01;;;;;;;0.00;0.00;;;;;;;7.89;65.06;99634.13;10560977;28;20051;-82
2022/04/08 01:22:03;;;;;;;0.10;0.10;;;;;;;7.77;64.95;99639.06;10562010;28;20040;-81
2022/04/08 01:27:05;;;;;;;0.10;0.10;;;;;;;7.49;65.59;99648.81;10560577;28;20242;-83
2022/04/08 01:32:08;;;;;;;0.52;0.45;;;;;;;7.36;65.12;99657.13;10560061;28;20131;-83
2022/04/08 01:37:10;;;;;;;0.20;0.20;;;;;;;7.62;64.97;99666.16;10560752;28;20047;-82
2022/04/08 01:42:12;;;;;;;4.82;0.10;;;;;;;7.43;63.94;99680.34;10543904;28;20044;-83
2022/04/08 01:47:14;;;;;;;0.00;0.00;;;;;;;7.35;63.05;99678.44;10561307;28;20475;-82
2022/04/08 01:52:15;;;;;;;0.00;0.00;;;;;;;7.24;63.22;99694.50;10559971;28;20055;-81
2022/04/08 01:57:22;;;;;;;0.00;0.00;;;;;;;7.25;63.68;99696.22;10541444;28;20105;-81
2022/04/08 02:02:23;;;;;;;0.00;0.00;;;;;;;7.20;64.48;99692.69;10541146;28;20067;-82
2022/04/08 02:07:26;;;;;;;0.00;0.00;;;;;;;7.19;64.59;99706.31;10557798;28;20058;-82
2022/04/08 02:12:28;;;;;;;0.00;0.00;;;;;;;7.02;65.46;99708.53;10540513;28;20071;-82
2022/04/08 02:17:30;;;;;;;2.33;0.22;;;;;;;6.79;66.55;99720.84;10576552;28;20096;-82
2022/04/08 02:22:31;;;;;;;0.63;0.63;;;;;;;6.81;66.01;99719.19;10549066;28;20096;-82
2022/04/08 02:27:33;;;;;;;0.00;0.00;;;;;;;6.82;65.63;99723.47;10549573;28;20109;-81
2022/04/08 02:32:35;;;;;;;0.30;0.10;;;;;;;6.83;65.65;99723.53;10565459;28;20064;-81
2022/04/08 02:37:37;;;;;;;0.95;0.30;;;;;;;6.75;65.47;99729.28;10566631;28;20051;-82
2022/04/08 02:42:38;;;;;;;0.17;0.05;;;;;;;6.70;65.08;99733.44;10585210;28;20073;-81
2022/04/08 02:47:44;;;;;;;0.00;0.00;;;;;;;6.74;65.05;99727.56;10564860;28;20067;-81
2022/04/08 02:52:46;;;;;;;0.00;0.00;;;;;;;6.46;65.02;99744.81;10547391;28;20093;-82
2022/04/08 02:57:48;;;;;;;0.13;0.13;;;;;;;6.48;64.90;99738.91;10564857;28;20138;-83
2022/04/08 03:02:49;;;;;;;5.05;0.47;;;;;;;6.47;64.44;99744.00;10546030;28;20051;-82
2022/04/08 03:07:52;;;;;;;0.00;0.00;;;;;;;6.52;64.21;99752.66;10582236;28;20048;-82
2022/04/08 03:12:53;;;;;;;0.05;0.05;;;;;;;6.35;65.29;99755.69;10563745;28;20505;-82
2022/04/08 03:17:55;;;;;;;0.00;0.00;;;;;;;6.25;65.04;99766.50;10547674;28;20055;-82
2022/04/08 03:22:56;;;;;;;4.90;1.00;;;;;;;6.09;65.89;99761.81;10546690;28;20104;-81
2022/04/08 03:27:58;;;;;;;0.95;0.63;;;;;;;6.13;66.03;99771.31;10563110;28;20055;-81
2022/04/08 03:33:00;;;;;;;1.58;0.10;;;;;;;6.19;66.47;99780.00;10544603;28;20143;-83
2022/04/08 03:38:04;;;;;;;0.80;0.15;;;;;;;6.23;65.86;99788.63;10562371;28;20044;-83
2022/04/08 03:43:05;;;;;;;5.45;1.08;;;;;;;6.41;65.67;99800.16;10562354;28;20036;-83
2022/04/08 03:48:08;;;;;;;1.00;0.47;;;;;;;6.48;65.98;99817.38;10562513;28;20047;-83
2022/04/08 03:53:09;;;;;;;5.38;1.10;;;;;;;6.54;65.06;99819.25;10562636;28;20040;-82
2022/04/08 03:58:11;;;;;;;2.28;0.45;;;;;;;6.60;64.78;99827.06;10564094;28;20582;-81
2022/04/08 04:03:12;;;;;;;0.50;0.15;;;;;;;6.65;65.14;99830.59;10545454;28;20470;-85
2022/04/08 04:08:18;;;;;;;3.20;0.28;;;;;;;6.67;63.94;99837.47;10561698;28;20646;-84
2022/04/08 04:13:20;;;;;;;1.00;0.20;;;;;;;6.68;64.04;99825.56;10560790;28;20452;-84
2022/04/08 04:18:22;;;;;;;0.00;0.00;;;;;;;6.57;63.72;99832.97;10561831;28;20092;-84
2022/04/08 04:23:23;;;;;;;3.88;2.20;;;;;;;6.57;63.38;99827.84;10543747;28;20059;-84
2022/04/08 04:28:29;;;;;;;0.10;0.10;;;;;;;6.60;63.89;99821.94;10560858;28;20372;-84
2022/04/08 04:33:31;;;;;;;3.95;2.78;;;;;;;6.40;64.60;99824.00;10543656;28;20104;-84
2022/04/08 04:38:33;;;;;;;0.00;0.00;;;;;;;6.66;64.39;99824.66;10543921;28;20047;-85
2022/04/08 04:43:34;;;;;;;0.00;0.00;;;;;;;7.04;62.71;99834.03;10558569;28;20486;-83
2022/04/08 04:48:36;;;;;;;0.00;0.00;;;;;;;7.28;61.42;99836.31;10559436;28;20039;-83
2022/04/08 04:53:38;;;;;;;0.00;0.00;;;;;;;7.00;62.50;99848.47;10559691;28;20046;-82
2022/04/08 04:58:39;;;;;;;4.28;0.75;;;;;;;6.62;63.48;99841.63;10578240;28;20039;-84
2022/04/08 05:03:41;;;;;;;0.00;0.00;;;;;;;6.47;64.09;99846.34;10542932;28;20404;-84
2022/04/08 05:08:42;;;;;;;0.00;0.00;;;;;;;6.39;64.83;99858.06;10542295;28;20044;-84
2022/04/08 05:13:44;;;;;;;0.00;0.00;;;;;;;6.15;65.05;99848.94;10577935;28;20092;-82
2022/04/08 05:18:47;;;;;;;0.00;0.00;;;;;;;6.32;65.24;99852.81;10560380;28;20081;-83
2022/04/08 05:23:48;;;;;;;0.00;0.00;;;;;;;6.18;65.38;99854.13;10541984;28;20043;-82
2022/04/08 05:28:51;;;;;;;0.00;0.00;;;;;;;6.05;65.12;99857.19;10559845;28;20410;-82
2022/04/08 05:33:53;;;;;;;2.05;0.82;;;;;;;5.77;66.43;99851.28;10558780;28;20039;-82
2022/04/08 05:38:55;;;;;;;0.60;0.43;;;;;;;5.96;67.35;99843.28;10534462;28;20446;-83
2022/04/08 05:43:56;;;;;;;0.47;0.47;;;;;;;6.09;66.22;99844.53;10562378;28;20043;-83
2022/04/08 05:48:58;;;;;;;1.75;1.02;;;;;;;6.22;66.25;99843.16;10575423;28;20047;-83
2022/04/08 05:54:00;;;;;;;1.02;0.47;;;;;;;6.42;66.05;99840.25;10541273;28;20482;-82
2022/04/08 05:59:01;;;;;;;1.23;1.00;;;;;;;6.24;66.75;99836.38;10558216;28;20063;-83
2022/04/08 06:04:03;;;;;;;4.05;1.05;;;;;;;6.22;66.92;99838.03;10541410;28;20160;-83
2022/04/08 06:09:04;;;;;;;0.47;0.35;;;;;;;6.78;65.25;99836.88;10557805;28;20122;-83
2022/04/08 06:14:06;;;;;;;4.75;1.60;;;;;;;7.09;64.72;99833.34;10539930;28;20052;-83
2022/04/08 06:19:11;;;;;;;1.85;1.05;;;;;;;7.18;64.03;99822.44;10554269;28;20031;-83
2022/04/08 06:24:12;;;;;;;4.85;1.15;;;;;;;7.34;63.59;99815.06;10555802;28;20063;-82
2022/04/08 06:29:14;;;;;;;6.32;1.27;;;;;;;7.52;63.70;99819.75;10558439;28;20074;-83
2022/04/08 06:34:19;;;;;;;2.72;2.38;;;;;;;7.81;63.10;99825.44;10538260;28;20044;-82
2022/04/08 06:39:21;;;;;;;3.38;0.77;;;;;;;7.72;63.64;99826.16;10559871;28;20556;-83
2022/04/08 06:44:22;;;;;;;3.72;0.95;;;;;;;7.52;64.20;99827.44;10551976;28;20058;-84
2022/04/08 06:49:24;;;;;;;2.28;0.73;;;;;;;7.61;63.03;99832.72;10534994;28;20484;-83
2022/04/08 06:54:25;;;;;;;6.75;1.60;;;;;;;7.61;63.85;99843.00;10550183;28;20063;-83
2022/04/08 06:59:27;;;;;;;0.13;0.10;;;;;;;7.91;62.74;99832.50;10550419;28;20044;-82
2022/04/08 07:04:29;;;;;;;1.35;0.60;;;;;;;8.20;62.29;99828.72;10540535;28;20066;-83
2022/04/08 07:09:34;;;;;;;3.15;0.60;;;;;;;8.29;61.68;99822.94;10563799;28;20077;-83
2022/04/08 07:14:35;;;;;;;2.05;0.63;;;;;;;8.77;61.04;99822.03;10544473;28;20067;-83
2022/04/08 07:19:37;;;;;;;1.38;0.93;;;;;;;8.49;61.21;99826.72;10560680;28;20052;-84
2022/04/08 07:24:39;;;;;;;0.85;0.52;;;;;;;8.95;60.99;99825.75;10580695;28;20036;-84
2022/04/08 07:29:40;;;;;;;0.15;0.08;;;;;;;8.97;60.39;99819.78;10581362;28;20040;-83
2022/04/08 07:34:43;;;;;;;1.52;1.20;;;;;;;8.87;59.79;99817.91;10563417;28;20075;-82
2022/04/08 07:39:45;;;;;;;2.72;0.95;;;;;;;8.37;59.62;99818.78;10562822;28;20050;-83
2022/04/08 07:44:46;;;;;;;0.10;0.10;;;;;;;9.06;59.01;99826.75;10550536;28;20046;-83
2022/04/08 07:49:48;;;;;;;0.10;0.10;;;;;;;9.23;58.89;99823.56;10545294;28;20076;-82
2022/04/08 07:54:49;;;;;;;0.68;0.40;;;;;;;9.07;58.54;99819.94;10545227;28;20494;-84
2022/04/08 07:59:51;;;;;;;0.70;0.35;;;;;;;9.20;58.79;99824.41;10544944;28;20455;-84
2022/04/08 08:04:53;;;;;;;1.25;0.60;;;;;;;9.40;56.84;99822.09;10545007;28;20477;-82
2022/04/08 08:09:54;;;;;;;1.17;1.08;;;;;;;9.55;56.59;99812.84;10545033;28;20044;-83
2022/04/08 08:14:57;;;;;;;0.00;0.00;;;;;;;9.80;57.41;99803.72;10561246;28;20051;-81
2022/04/08 08:19:58;;;;;;;0.75;0.75;;;;;;;9.60;56.58;99806.06;10560196;28;20051;-84
2022/04/08 08:25:00;;;;;;;0.55;0.43;;;;;;;9.89;56.10;99808.09;10562096;28;20474;-83
2022/04/08 08:30:03;;;;;;;3.53;1.50;;;;;;;9.73;55.77;99812.22;10562062;28;20035;-83
2022/04/08 08:35:07;;;;;;;0.10;0.10;;;;;;;10.26;55.22;99803.31;10560187;28;20139;-84
2022/04/08 08:40:11;;;;;;;0.38;0.17;;;;;;;10.30;53.69;99807.69;10561043;28;20138;-84
2022/04/08 08:45:16;;;;;;;0.00;0.00;;;;;;;10.84;55.15;99799.53;10561021;28;20108;-84
2022/04/08 08:50:18;;;;;;;1.13;0.28;;;;;;;10.45;54.40;99796.66;10560543;28;20035;-83
2022/04/08 08:55:20;;;;;;;10.32;1.20;;;;;;;10.31;54.20;99792.22;10559780;28;20206;-84
2022/04/08 09:00:23;;;;;;;5.30;1.05;;;;;;;9.95;53.23;99791.03;10560204;28;20031;-85
2022/04/08 09:05:25;;;;;;;0.20;0.10;;;;;;;10.56;52.09;99778.72;10541873;28;20444;-83
2022/04/08 09:10:39;;;;;;;0.70;0.13;;;;;;;10.55;51.82;99774.41;10559906;28;20036;-84
2022/04/08 09:15:51;;;;;;;0.00;0.00;;;;;;;10.69;51.17;99765.09;10560062;28;20078;-84
2022/04/08 09:20:53;;;;;;;2.22;1.05;;;;;;;10.68;51.57;99760.81;10558849;28;20047;-83
2022/04/08 09:26:03;;;;;;;1.20;0.28;;;;;;;11.28;52.70;99752.56;10558782;28;20073;-82
2022/04/08 09:31:05;;;;;;;1.65;0.88;;;;;;;10.71;50.00;99750.50;10558794;28;20036;-84
2022/04/08 09:36:07;;;;;;;0.03;0.03;;;;;;;11.73;50.72;99744.97;10559097;28;20048;-82
2022/04/08 09:41:10;;;;;;;0.77;0.50;;;;;;;10.75;50.81;99739.38;10576603;28;20039;-81
2022/04/08 09:46:21;;;;;;;3.75;0.73;;;;;;;10.36;50.64;99743.34;10541510;28;20079;-83
2022/04/08 09:51:23;;;;;;;0.45;0.40;;;;;;;11.27;50.74;99741.38;10576815;28;20035;-83
2022/04/08 09:56:27;;;;;;;1.65;0.52;;;;;;;11.08;51.07;99732.69;10558244;28;20051;-83
2022/04/08 10:01:29;;;;;;;1.77;0.85;;;;;;;10.63;49.90;99731.56;10576288;28;20107;-82
2022/04/08 10:06:31;;;;;;;0.10;0.03;;;;;;;10.66;50.38;99729.03;10576081;28;20100;-82
2022/04/08 10:11:59;;;;;;;0.00;0.00;;;;;;;10.87;50.03;99724.84;10557073;28;20054;-81
2022/04/08 10:17:02;;;;;;;0.00;0.00;;;;;;;11.32;51.10;99723.34;10541092;28;20071;-84
2022/04/08 10:22:16;;;;;;;1.27;0.55;;;;;;;10.94;49.48;99730.06;10557597;28;20466;-83
2022/04/08 10:27:30;;;;;;;3.42;1.27;;;;;;;11.03;51.25;99721.50;10575094;28;20039;-82
2022/04/08 10:32:40;;;;;;;10.52;1.33;;;;;;;10.76;50.66;99723.06;10557321;28;20075;-82
2022/04/08 10:37:42;;;;;;;0.77;0.47;;;;;;;11.17;51.64;99718.97;10541150;28;20130;-82
2022/04/08 10:42:45;;;;;;;3.83;1.10;;;;;;;10.70;50.47;99728.16;10563656;28;20027;-83
2022/04/08 10:47:48;;;;;;;4.53;1.15;;;;;;;10.67;49.87;99723.03;10549311;28;20569;-83
2022/04/08 10:52:49;;;;;;;1.08;0.60;;;;;;;10.74;50.05;99721.31;10564686;28;20517;-81
2022/04/08 10:57:56;;;;;;;0.00;0.00;;;;;;;11.15;49.72;99719.81;10565399;28;20051;-83
2022/04/08 11:02:58;;;;;;;3.58;1.63;;;;;;;10.34;49.98;99716.72;10564949;28;20135;-82
2022/04/08 11:08:03;;;;;;;0.22;0.22;;;;;;;10.85;51.40;99704.22;10548695;28;20104;-82
2022/04/08 11:13:11;;;;;;;0.43;0.30;;;;;;;11.22;46.81;99712.13;10564864;28;20066;-82
2022/04/08 11:18:12;;;;;;;4.10;1.50;;;;;;;10.76;48.44;99719.63;10564653;28;20096;-83
2022/04/08 11:23:14;;;;;;;0.40;0.40;;;;;;;11.36;50.63;99713.91;10546886;28;20081;-82
2022/04/08 11:28:16;;;;;;;0.55;0.45;;;;;;;11.51;47.50;99713.06;10562990;28;20067;-83
2022/04/08 11:33:19;;;;;;;2.05;1.27;;;;;;;11.13;48.71;99700.94;10563240;28;20071;-81
2022/04/08 11:38:45;;;;;;;2.47;1.38;;;;;;;11.01;47.87;99694.84;10564093;28;20582;-83
2022/04/08 11:44:08;;;;;;;2.35;1.08;;;;;;;11.04;48.03;99684.56;10572458;27;20403;-80
2022/04/08 11:49:13;;;;;;;2.13;0.60;;;;;;;11.34;47.54;99682.09;10586037;27;20048;-82
2022/04/08 11:54:14;;;;;;;0.10;0.10;;;;;;;11.40;48.28;99674.34;10579272;28;20151;-83
2022/04/08 11:59:19;;;;;;;0.10;0.10;;;;;;;11.30;46.32;99670.91;10562926;28;20071;-82
2022/04/08 12:04:21;;;;;;;0.05;0.03;;;;;;;11.53;48.14;99654.63;10561909;28;20051;-83
2022/04/08 12:09:22;;;;;;;0.00;0.00;;;;;;;11.25;48.22;99639.09;10581021;28;20071;-81
2022/04/08 12:14:26;;;;;;;0.10;0.10;;;;;;;11.21;48.76;99632.19;10579415;28;20050;-84
2022/04/08 12:19:27;;;;;;;0.65;0.20;;;;;;;11.62;46.50;99623.69;10580753;28;20498;-82
2022/04/08 12:25:01;;;;;;;1.00;0.70;;;;;;;11.09;47.94;99618.44;10560802;28;20065;-82
2022/04/08 12:30:08;;;;;;;2.47;0.93;;;;;;;11.13;48.32;99619.28;10561446;28;20127;-81
2022/04/08 12:35:26;;;;;;;3.65;1.38;;;;;;;11.26;49.10;99615.03;10545830;28;20103;-80
2022/04/08 12:40:28;;;;;;;2.55;1.65;;;;;;;11.06;48.49;99613.25;10563008;28;20036;-80
2022/04/08 12:45:30;;;;;;;0.00;0.00;;;;;;;11.56;46.40;99614.22;10570339;27;20074;-83
2022/04/08 12:50:32;;;;;;;0.47;0.38;;;;;;;11.89;48.64;99616.81;10567635;28;20043;-82
2022/04/08 12:55:34;;;;;;;0.13;0.13;;;;;;;11.41;48.83;99615.06;10540618;27;20563;-82
2022/04/08 13:00:36;;;;;;;1.50;0.93;;;;;;;11.14;48.97;99615.88;10556575;28;20059;-82
2022/04/08 13:05:38;;;;;;;0.10;0.00;;;;;;;11.11;50.61;99614.16;10553704;28;20139;-81
2022/04/08 13:10:40;;;;;;;0.55;0.20;;;;;;;10.98;50.15;99625.28;10559482;27;20418;-81
2022/04/08 13:15:42;;;;;;;2.63;0.55;;;;;;;11.23;49.65;99612.44;10549777;27;20147;-83
2022/04/08 13:20:44;;;;;;;0.00;0.00;;;;;;;11.17;49.20;99609.84;10584882;27;20135;-82
2022/04/08 13:25:46;;;;;;;0.10;0.10;;;;;;;11.67;50.56;99611.66;10560924;27;20028;-82
2022/04/08 13:30:48;;;;;;;0.00;0.00;;;;;;;11.69;50.10;99609.94;10578451;27;20043;-82
2022/04/08 13:35:55;;;;;;;0.75;0.73;;;;;;;11.73;48.77;99614.22;10548638;27;20044;-82
2022/04/08 13:40:58;;;;;;;0.00;0.00;;;;;;;11.95;48.32;99616.81;10577736;27;20548;-81
2022/04/08 13:46:00;;;;;;;1.35;0.77;;;;;;;11.06;49.65;99607.25;10560043;28;20072;-80
2022/04/08 13:51:01;;;;;;;4.15;1.75;;;;;;;10.86;50.39;99613.19;10580923;27;20048;-80
2022/04/08 13:56:03;;;;;;;2.67;0.52;;;;;;;11.52;50.18;99619.38;10607450;27;20047;-81
2022/04/08 14:01:05;;;;;;;0.10;0.10;;;;;;;12.48;48.32;99603.84;10580393;28;20063;-81
2022/04/08 14:06:07;;;;;;;0.00;0.00;;;;;;;12.15;48.13;99597.91;10579123;28;20496;-81
2022/04/08 14:11:08;;;;;;;0.20;0.10;;;;;;;12.41;49.75;99596.97;10558379;28;20082;-81
2022/04/08 14:16:10;;;;;;;0.22;0.22;;;;;;;12.08;50.02;99602.22;10589290;27;20043;-82
2022/04/08 14:21:13;;;;;;;7.63;1.02;;;;;;;12.23;48.92;99601.34;10612984;27;20073;-81
2022/04/08 14:26:15;;;;;;;6.15;2.67;;;;;;;11.26;48.21;99594.41;10594047;27;20038;-80
2022/04/08 14:31:18;;;;;;;0.43;0.30;;;;;;;12.33;49.57;99587.53;10634069;27;20118;-81
2022/04/08 14:36:19;;;;;;;0.00;0.00;;;;;;;12.78;47.77;99574.47;10635535;27;20051;-81
2022/04/08 14:41:22;;;;;;;0.00;0.00;;;;;;;12.70;46.01;99574.47;10607444;27;20529;-80
2022/04/08 14:46:23;;;;;;;0.00;0.00;;;;;;;12.57;44.44;99574.56;10636835;27;20051;-82
2022/04/08 14:51:27;;;;;;;0.10;0.10;;;;;;;12.68;47.22;99573.66;10589314;27;20398;-81
2022/04/08 14:56:29;;;;;;;2.22;0.77;;;;;;;12.24;45.10;99589.28;10590991;27;20054;-81
2022/04/08 15:01:31;;;;;;;0.00;0.00;;;;;;;13.16;44.17;99580.28;10594473;27;20043;-81
2022/04/08 15:06:32;;;;;;;0.00;0.00;;;;;;;12.54;40.58;99601.28;10553002;28;20091;-80
2022/04/08 15:11:34;;;;;;;0.00;0.00;;;;;;;12.50;40.86;99599.53;10566302;28;20131;-81
2022/04/08 15:16:36;;;;;;;1.05;0.98;;;;;;;12.51;41.15;99606.44;10585704;27;20402;-80
2022/04/08 15:21:37;;;;;;;0.00;0.00;;;;;;;12.32;42.11;99606.47;10571717;28;20060;-81
2022/04/08 15:26:39;;;;;;;0.00;0.00;;;;;;;12.49;43.24;99602.97;10560129;28;20047;-80
2022/04/08 15:31:43;;;;;;;0.00;0.00;;;;;;;11.77;44.71;99617.66;10572541;28;20058;-80
2022/04/08 15:36:45;;;;;;;0.00;0.00;;;;;;;11.94;43.60;99621.97;10597505;28;20487;-80
2022/04/08 15:41:50;;;;;;;0.20;0.20;;;;;;;11.84;44.29;99618.53;10595141;28;20043;-80
2022/04/08 15:46:52;;;;;;;0.00;0.00;;;;;;;11.96;44.50;99617.69;10559990;28;20044;-80
2022/04/08 15:51:55;;;;;;;1.55;0.75;;;;;;;10.85;44.64;99628.63;10571488;28;20042;-79
2022/04/08 15:56:56;;;;;;;0.40;0.20;;;;;;;11.37;44.55;99636.53;10564298;28;20427;-79
2022/04/08 16:01:58;;;;;;;0.13;0.13;;;;;;;11.40;45.40;99644.28;10572930;28;20402;-78
2022/04/08 16:07:00;;;;;;;1.60;1.25;;;;;;;10.95;46.45;99651.03;10595866;28;20413;-79
2022/04/08 16:12:01;;;;;;;0.08;0.03;;;;;;;11.20;47.01;99651.13;10577425;28;20044;-79
2022/04/08 16:17:03;;;;;;;0.00;0.00;;;;;;;10.73;48.43;99658.66;10572346;28;20051;-79
2022/04/08 16:22:05;;;;;;;0.45;0.25;;;;;;;10.25;48.87;99667.75;10571083;28;20138;-79
2022/04/08 16:27:07;;;;;;;0.22;0.17;;;;;;;10.31;49.08;99678.13;10570060;28;20487;-80
2022/04/08 16:32:09;;;;;;;0.30;0.10;;;;;;;10.35;48.43;99685.00;10593661;28;20071;-79
2022/04/08 16:37:31;;;;;;;0.00;0.00;;;;;;;10.47;49.68;99686.81;10571714;28;20082;-79
2022/04/08 16:42:32;;;;;;;0.68;0.50;;;;;;;10.27;50.42;99694.38;10574894;28;20450;-79
2022/04/08 16:47:34;;;;;;;0.03;0.03;;;;;;;10.21;49.99;99696.91;10568569;28;20082;-80
2022/04/08 16:52:42;;;;;;;3.10;0.55;;;;;;;10.32;50.05;99701.28;10570529;28;20479;-79
2022/04/08 16:57:44;;;;;;;0.32;0.22;;;;;;;10.08;51.07;99707.09;10592289;28;20047;-79
2022/04/08 17:02:49;;;;;;;0.00;0.00;;;;;;;10.57;50.53;99709.22;10570433;28;20139;-80
2022/04/08 17:07:51;;;;;;;0.00;0.00;;;;;;;10.47;50.11;99712.56;10594888;28;20048;-80
2022/04/08 17:12:53;;;;;;;0.00;0.00;;;;;;;10.15;49.35;99711.44;10573837;28;20449;-80
2022/04/08 17:17:55;;;;;;;0.60;0.03;;;;;;;9.96;49.69;99722.41;10575537;28;20138;-78
2022/04/08 17:23:00;;;;;;;0.00;0.00;;;;;;;9.76;50.65;99720.50;10570916;28;20438;-79
2022/04/08 17:28:03;;;;;;;0.15;0.10;;;;;;;9.71;50.29;99732.47;10571017;28;20039;-79
2022/04/08 17:33:05;;;;;;;0.00;0.00;;;;;;;10.28;51.17;99727.00;10569587;28;20067;-80
2022/04/08 17:38:06;;;;;;;0.00;0.00;;;;;;;10.18;51.63;99735.47;10564923;28;20044;-80
2022/04/08 17:43:09;;;;;;;0.00;0.00;;;;;;;9.48;53.57;99735.66;10584430;28;20082;-79
2022/04/08 17:48:10;;;;;;;0.55;0.32;;;;;;;9.07;54.48;99742.84;10571481;28;20055;-79
2022/04/08 17:53:12;;;;;;;0.00;0.00;;;;;;;9.59;53.54;99737.47;10567990;28;20517;-79
2022/04/08 17:58:14;;;;;;;0.00;0.00;;;;;;;9.08;55.09;99755.69;10569278;28;20043;-79
2022/04/08 18:03:17;;;;;;;0.00;0.00;;;;;;;8.85;55.94;99758.81;10570509;28;20039;-79
2022/04/08 18:08:18;;;;;;;0.00;0.00;;;;;;;9.39;55.68;99755.22;10568016;28;20047;-79
2022/04/08 18:13:20;;;;;;;0.00;0.00;;;;;;;8.62;56.15;99765.31;10564344;28;20483;-79
2022/04/08 18:18:23;;;;;;;0.00;0.00;;;;;;;8.51;57.25;99763.44;10584645;28;20039;-81
2022/04/08 18:23:31;;;;;;;0.00;0.00;;;;;;;8.53;56.76;99763.47;10582380;28;20060;-80
2022/04/08 18:28:34;;;;;;;0.00;0.00;;;;;;;8.29;57.55;99774.16;10563294;28;20087;-80
2022/04/08 18:33:36;;;;;;;0.00;0.00;;;;;;;8.14;58.08;99772.19;10582388;28;20039;-80
2022/04/08 18:38:38;;;;;;;0.00;0.00;;;;;;;8.48;56.44;99783.06;10582960;28;20071;-80
2022/04/08 18:43:40;;;;;;;0.00;0.00;;;;;;;8.26;56.56;99782.69;10588453;28;20039;-80
2022/04/08 18:49:35;;;;;;;0.20;0.10;;;;;;;8.32;56.08;99797.28;10568419;28;20491;-80
2022/04/08 18:54:37;;;;;;;0.10;0.10;;;;;;;8.13;56.79;99801.25;10569247;28;20505;-80
2022/04/08 18:59:39;;;;;;;0.00;0.00;;;;;;;8.42;54.04;99809.47;10570116;28;20074;-80
2022/04/08 19:04:42;;;;;;;0.00;0.00;;;;;;;8.67;54.47;99810.75;10587075;27;20047;-80
2022/04/08 19:09:44;;;;;;;0.00;0.00;;;;;;;8.79;53.26;99810.09;10617848;27;20046;-80
2022/04/08 19:14:46;;;;;;;0.00;0.00;;;;;;;8.53;53.79;99833.63;10614241;27;20036;-80
2022/04/08 19:20:19;;;;;;;0.00;0.00;;;;;;;8.22;55.14;99838.22;10622098;27;20086;-79
2022/04/08 19:32:51;;;;;;;0.00;0.00;;;;;;;8.78;53.59;99852.03;10559844;28;20032;-79
2022/04/08 19:38:15;;;;;;;0.00;0.00;;;;;;;8.12;56.59;99876.50;10545730;28;20048;-80
2022/04/08 19:43:17;;;;;;;1.20;0.82;;;;;;;7.73;59.61;99883.41;10530639;28;20044;-79
2022/04/08 19:48:18;;;;;;;0.00;0.00;;;;;;;8.05;59.28;99860.97;10618534;27;20576;-80
2022/04/08 19:53:20;;;;;;;0.00;0.00;;;;;;;8.22;57.89;99857.84;10640584;27;20105;-80
2022/04/08 19:58:21;;;;;;;0.00;0.00;;;;;;;8.07;57.47;99850.75;10642796;27;20051;-79
2022/04/08 20:03:23;;;;;;;0.00;0.00;;;;;;;7.93;57.85;99859.03;10637057;27;20047;-80
2022/04/08 20:08:25;;;;;;;0.00;0.00;;;;;;;7.82;58.66;99865.66;10622079;27;20039;-80
2022/04/08 20:13:26;;;;;;;0.00;0.00;;;;;;;7.81;58.59;99871.59;10637296;27;20042;-80
2022/04/08 20:18:28;;;;;;;0.00;0.00;;;;;;;7.53;59.26;99873.59;10640449;27;20043;-80
2022/04/08 20:23:29;;;;;;;0.00;0.00;;;;;;;7.65;59.01;99879.81;10622799;27;20064;-80
2022/04/08 20:28:31;;;;;;;0.00;0.00;;;;;;;7.58;60.20;99879.69;10606269;27;20043;-80
2022/04/08 20:33:34;;;;;;;0.00;0.00;;;;;;;7.53;60.02;99881.28;10641278;27;20367;-79
2022/04/08 20:38:37;;;;;;;0.00;0.00;;;;;;;7.83;58.98;99882.78;10611832;27;20048;-79
2022/04/08 20:43:38;;;;;;;0.00;0.00;;;;;;;7.82;58.48;99881.03;10582496;28;20486;-79
2022/04/08 20:48:40;;;;;;;0.00;0.00;;;;;;;7.71;58.63;99890.19;10578804;28;20395;-79
2022/04/08 20:53:42;;;;;;;0.00;0.00;;;;;;;7.62;58.87;99896.88;10579760;28;20031;-79
2022/04/08 20:58:44;;;;;;;0.00;0.00;;;;;;;7.52;59.54;99910.31;10586180;28;20044;-80
2022/04/08 21:03:46;;;;;;;0.00;0.00;;;;;;;7.36;59.14;99908.22;10583562;28;20055;-79
2022/04/08 21:08:48;;;;;;;0.00;0.00;;;;;;;7.35;59.06;99924.44;10565579;28;20044;-79
2022/04/08 21:13:50;;;;;;;0.00;0.00;;;;;;;7.10;59.96;99921.31;10593040;28;20390;-80
2022/04/08 21:18:57;;;;;;;0.00;0.00;;;;;;;6.91;60.17;99915.72;10572421;28;20062;-79
2022/04/08 21:23:58;;;;;;;0.00;0.00;;;;;;;6.69;60.85;99933.91;10591524;28;20036;-78
2022/04/08 21:29:00;;;;;;;0.00;0.00;;;;;;;6.80;60.95;99932.50;10592375;28;20047;-79
2022/04/08 21:34:01;;;;;;;0.00;0.00;;;;;;;6.47;61.61;99943.59;10589568;28;20039;-79
2022/04/08 21:39:04;;;;;;;0.00;0.00;;;;;;;6.55;61.76;99956.59;10593185;28;20093;-79
2022/04/08 21:44:05;;;;;;;0.10;0.10;;;;;;;6.67;60.77;99973.13;10585507;28;20039;-80
2022/04/08 21:49:09;;;;;;;0.00;0.00;;;;;;;6.45;62.19;99986.16;10586685;28;20055;-79
2022/04/08 21:54:12;;;;;;;0.00;0.00;;;;;;;6.51;61.88;99991.47;10549450;28;20043;-80
2022/04/08 21:59:14;;;;;;;0.00;0.00;;;;;;;6.44;62.31;99994.69;10569983;28;20112;-79
2022/04/08 22:04:16;;;;;;;0.00;0.00;;;;;;;6.40;63.38;100003.09;10607540;28;20042;-79
2022/04/08 22:09:18;;;;;;;0.00;0.00;;;;;;;6.49;63.09;100024.69;10654883;28;20071;-79
2022/04/08 22:14:20;;;;;;;0.00;0.00;;;;;;;6.18;63.55;100033.16;10616724;28;20040;-80
2022/04/08 22:19:22;;;;;;;0.00;0.00;;;;;;;6.50;63.19;100040.91;10592513;28;20044;-79
2022/04/08 22:24:27;;;;;;;0.00;0.00;;;;;;;6.59;63.37;100051.41;10591584;28;20470;-79
2022/04/08 22:29:28;;;;;;;0.00;0.00;;;;;;;6.32;65.20;100065.13;10591179;28;20399;-79
2022/04/08 22:34:33;;;;;;;0.00;0.00;;;;;;;6.61;64.33;100067.66;10601520;28;20050;-79
2022/04/08 22:39:35;;;;;;;0.00;0.00;;;;;;;6.50;63.89;100071.63;10592937;28;20082;-79
2022/04/08 22:44:39;;;;;;;0.00;0.00;;;;;;;6.74;62.46;100085.97;10565864;28;20074;-79
2022/04/08 22:49:41;;;;;;;0.00;0.00;;;;;;;6.46;63.41;100088.59;10537595;28;20059;-79
2022/04/08 22:54:44;;;;;;;0.10;0.10;;;;;;;6.61;63.00;100092.41;10551104;28;20053;-79
2022/04/08 22:59:53;;;;;;;0.00;0.00;;;;;;;6.43;64.03;100095.31;10551051;28;20044;-78
2022/04/08 23:04:57;;;;;;;0.00;0.00;;;;;;;6.54;64.21;100101.59;10568303;28;20036;-78
2022/04/08 23:09:59;;;;;;;0.00;0.00;;;;;;;6.69;63.34;100108.88;10568926;28;20135;-79
2022/04/08 23:15:00;;;;;;;0.00;0.00;;;;;;;6.48;63.49;100116.78;10549640;28;20040;-78
2022/04/08 23:20:03;;;;;;;0.70;0.28;;;;;;;6.43;64.42;100123.44;10566360;28;20052;-79
2022/04/08 23:25:05;;;;;;;0.00;0.00;;;;;;;6.59;63.27;100128.19;10545487;28;20041;-79
2022/04/08 23:30:07;;;;;;;0.00;0.00;;;;;;;6.35;64.47;100134.31;10540607;28;20052;-79
2022/04/08 23:35:08;;;;;;;0.00;0.00;;;;;;;6.43;63.99;100142.22;10540319;28;20050;-79
2022/04/08 23:40:10;;;;;;;0.00;0.00;;;;;;;6.07;64.81;100157.31;10559708;28;20044;-79
2022/04/08 23:45:12;;;;;;;0.00;0.00;;;;;;;5.86;65.12;100174.50;10565855;27;20050;-79